»·PEaware :: N325HC KIFP`-KIFP

N325HC :: KIFP`-KIFP

FLIGHT INFORMATION

Flight Status: Arrived
Operator: Privately registered:
United States
More flights under this callsign
Pilot: Ian H. (8262)
Aircraft: Unknown
(0)
More flights by this aircraft type
Origin: KIFP`
Destination: KIFP Laughlin/Bullhead Intl
United States
More flights between these airports :: More routes between these airports
Route: EED LAKIY
File this flight plan on PilotEdge
Remarks: RNAV RWY 16 Approach Practice
Altitude:
(Current/Filed)
7,000ft
Speed:
(Current/Filed)
150kts
Departed: 10-Jul-18 09:54 PM
Arrived: 10-Jul-18 11:01 PM
Distance/Time
Traveled:
Not Available
Distance/Time
To Go:
Arrived

Flight Plot

Page will automatically refresh every two minutes.

Flight plan parsing failed; only flown route is shown


Map Options




Map Legend


Flown Route
Filed Route
Departure Airport
Arrival Airport
Navaid (VOR, NDB)
Fix

Horizontal Profiles

Position Reports

Time Latitude Longitude Heading Altitude Ground
Speed
10-Jul-18 21:40 35.151421 -114.557852 51 671ft 0kts
10-Jul-18 21:41 35.151421 -114.557852 51 671ft 0kts
10-Jul-18 21:42 35.151421 -114.557852 51 671ft 0kts
10-Jul-18 21:43 35.151421 -114.557852 51 671ft 0kts
10-Jul-18 21:44 35.151421 -114.557852 51 671ft 0kts
10-Jul-18 21:45 35.151421 -114.557852 51 671ft 0kts
10-Jul-18 21:46 35.151421 -114.557852 51 671ft 0kts
10-Jul-18 21:47 35.151421 -114.557852 51 671ft 0kts
10-Jul-18 21:48 35.151421 -114.557852 51 671ft 0kts
10-Jul-18 21:49 35.164267 -114.556411 130 683ft 0kts
10-Jul-18 21:50 35.164888 -114.556652 274 662ft 0kts
10-Jul-18 21:51 35.164888 -114.556652 274 662ft 0kts
10-Jul-18 21:52 35.165485 -114.558731 353 639ft 3kts
10-Jul-18 21:53 35.166173 -114.559145 285 632ft 0kts
10-Jul-18 21:54 35.166173 -114.559145 285 632ft 0kts
10-Jul-18 21:55 35.164231 -114.560056 176 623ft 51kts
10-Jul-18 21:56 35.141554 -114.559412 172 1068ft 130kts
10-Jul-18 21:57 35.108342 -114.554319 173 2014ft 146kts
10-Jul-18 21:58 35.073838 -114.561893 162 3368ft 102kts
10-Jul-18 21:59 35.046696 -114.552969 166 4575ft 103kts
10-Jul-18 22:00 35.018668 -114.545017 166 5687ft 105kts
10-Jul-18 22:01 34.980835 -114.534282 166 5704ft 161kts
10-Jul-18 22:02 34.934981 -114.521338 166 5700ft 173kts
10-Jul-18 22:03 34.887956 -114.508115 166 5699ft 174kts
10-Jul-18 22:04 34.848969 -114.497420 165 7033ft 116kts
10-Jul-18 22:05 34.809809 -114.486390 165 7005ft 161kts
10-Jul-18 22:06 34.773224 -114.501544 268 7001ft 183kts
10-Jul-18 22:07 34.801478 -114.537919 327 7011ft 147kts
10-Jul-18 22:08 34.839004 -114.571572 323 7005ft 182kts
10-Jul-18 22:09 34.886321 -114.589044 356 7004ft 187kts
10-Jul-18 22:10 34.938515 -114.593612 357 7003ft 189kts
10-Jul-18 22:11 34.990599 -114.597696 357 7003ft 186kts
10-Jul-18 22:12 35.041614 -114.601698 357 7075ft 183kts
10-Jul-18 22:13 35.092428 -114.605745 357 7076ft 184kts
10-Jul-18 22:14 35.144009 -114.609879 357 7007ft 187kts
10-Jul-18 22:15 35.195606 -114.614025 357 7003ft 185kts
10-Jul-18 22:16 35.246917 -114.618167 357 7004ft 185kts
10-Jul-18 22:17 35.299822 -114.622421 357 6813ft 194kts
10-Jul-18 22:18 35.353610 -114.626882 356 6701ft 191kts
10-Jul-18 22:19 35.406235 -114.631057 357 6695ft 182kts
10-Jul-18 22:20 35.451997 -114.634549 356 6683ft 152kts
10-Jul-18 22:21 35.487858 -114.650165 334 6670ft 126kts
10-Jul-18 22:22 35.519095 -114.666818 334 6669ft 127kts
10-Jul-18 22:23 35.552492 -114.684768 334 6663ft 132kts
10-Jul-18 22:24 35.572605 -114.713259 234 6664ft 115kts
10-Jul-18 22:25 35.550330 -114.703759 114 6665ft 112kts
10-Jul-18 22:26 35.535960 -114.671342 145 6661ft 106kts
10-Jul-18 22:27 35.508968 -114.655008 160 6667ft 118kts
10-Jul-18 22:28 35.476792 -114.641622 162 6667ft 121kts
10-Jul-18 22:29 35.445465 -114.629154 162 6683ft 116kts
10-Jul-18 22:30 35.419186 -114.617385 159 7059ft 95kts
10-Jul-18 22:31 35.384773 -114.597598 160 6044ft 171kts
10-Jul-18 22:32 35.344898 -114.588540 165 4984ft 135kts
10-Jul-18 22:33 35.309715 -114.576710 158 3721ft 124kts
10-Jul-18 22:34 35.278454 -114.568847 202 2585ft 110kts
10-Jul-18 22:35 35.250829 -114.566517 178 1921ft 82kts
10-Jul-18 22:36 35.227086 -114.565374 173 2013ft 104kts
10-Jul-18 22:37 35.188954 -114.561860 180 1952ft 177kts
10-Jul-18 22:38 35.149269 -114.559355 177 3214ft 134kts
10-Jul-18 22:39 35.112899 -114.552315 134 4018ft 146kts
10-Jul-18 22:40 35.121511 -114.506543 74 5250ft 111kts
10-Jul-18 22:41 35.131111 -114.470783 74 6329ft 112kts
10-Jul-18 22:42 35.141957 -114.428946 74 6690ft 154kts
10-Jul-18 22:44 35.157357 -114.322236 148 6724ft 173kts
10-Jul-18 22:45 35.131237 -114.359433 260 6720ft 183kts
10-Jul-18 22:46 35.100504 -114.405612 216 6717ft 167kts
10-Jul-18 22:47 35.064581 -114.439975 215 6719ft 171kts
10-Jul-18 22:48 35.026709 -114.475250 215 6723ft 177kts
10-Jul-18 22:49 34.987620 -114.511701 215 6724ft 177kts
10-Jul-18 22:50 34.946987 -114.547268 197 6383ft 179kts
10-Jul-18 22:51 34.902682 -114.564040 192 5769ft 155kts
10-Jul-18 22:52 34.863275 -114.571250 156 5152ft 136kts
10-Jul-18 22:53 34.867731 -114.538575 3 4556ft 141kts
10-Jul-18 22:54 34.904327 -114.541726 359 4296ft 112kts
10-Jul-18 22:55 34.936985 -114.544179 359 4301ft 123kts
10-Jul-18 22:56 34.971794 -114.546623 359 4302ft 121kts
10-Jul-18 22:57 35.004664 -114.549911 358 3969ft 122kts
10-Jul-18 22:58 35.041357 -114.551226 2 2843ft 142kts
10-Jul-18 22:59 35.075946 -114.554153 14 2243ft 108kts
10-Jul-18 23:00 35.106106 -114.555392 0 1543ft 107kts
10-Jul-18 23:01 35.133210 -114.557882 356 959ft 102kts
10-Jul-18 23:02 35.154353 -114.559426 352 650ft 19kts

Navigation Log

Ident Type
Flight plan parsing failed, navigation log unavailable